Sanostee, NM

7:30 PM MDT on May 06, 2015 (GMT -0600)
Four Corners Regional | | Change Station
CLOSE
Current Station
Airport
Location: Farmington,
Elevation: 5502 ft
Nearby Weather Stations

Elev 5502 ft 36.74 °N, 108.23 °W | Updated 37 minutes ago

Mostly Cloudy
Mostly Cloudy
52 °F
Feels Like 52 °F
N
12
Wind Variable Wind from NNW

Today
High -- | Low -- °F
--% Chance of Precip.
Yesterday
High -- | Low -- °F
Precip. -- in
6:17 AM 8:07 PM
Waning Gibbous, 91% visible
Pressure 29.78 in
Visibility 10.0 miles
Clouds Scattered Clouds 4300 ft
Mostly Cloudy 6000 ft
Overcast 9000 ft
Dew Point 45 °F
Humidity 77%
Rainfall 0.06 in
Snow Depth Not available.
UV 0 out of 12
Pollen 4.80 out of 12
Air Quality Not available.
Flu Activity Local Activity
METAR KFMN 070053Z 33010KT 10SM -RA SCT043 BKN060 OVC090 11/07 A2986 RMK AO2 PK WND 18026/0009 RAB13 SLP085 P0004 T01110072

More Conditions Fewer Conditions

Pressure 29.78 in
Visibility 10.0 miles
Clouds Scattered Clouds 4300 ft
Mostly Cloudy 6000 ft
Overcast 9000 ft
Dew Point 45 °F
Humidity 77%
Rainfall 0.06 in
Snow Depth Not available.
UV 0 out of 12
Pollen 4.80 out of 12
Air Quality Not available.
Flu Activity Local Activity
METAR KFMN 070053Z 33010KT 10SM -RA SCT043 BKN060 OVC090 11/07 A2986 RMK AO2 PK WND 18026/0009 RAB13 SLP085 P0004 T01110072

More Conditions Fewer Conditions

Nowcast | as of 5:30 PM MDT on May 6, 2015

Isolated showers and thunderstorms will move east and northeast across much of northwest and north-central New Mexico this evening. Through 730 PM MDT...thunderstorms and showers will impact Kewa Pueblo...La Bajada Hill...Chimayo...and Truchas. Given the relatively fast movement...rainfall accumulations will remain generally below two tenths of an inch. The strongest storms could produce a quick burst of small hail and gusty winds...and lighting will be a threat with all thunderstorms.

×

10-Day Weather Forecast

Almanac

Astronomy

May. 06, 2015 Rise Set
Actual Time
Civil Twilight
Nautical Twilight
Astronomical Twilight
Moon
Length of Visible Light
Length of Day
Tomorrow will be .
, % of the Moon is Illuminated

Today's Extremes

State Highs State Lows

Community

WunderPhotos

Upload Photos

1,819,068 photos uploaded!

WunderBlogs® & News

Nearby

Air Quality

  Air Quality AQ Index Pollutant
Not available.

Snow Depth

Station Depth Elevation

Earthquake Activity

City Distance Mag. Time & Date
Minimum magnitude displayed is 2.5.

Coastal Water Temperatures

Place Temperature

Stations

Nearby Weather Stations

Station Location Temp. Windchill Dew Point Humidity Wind Precip. Elev Updated Type